createdAt,value
2019-02-07T00:00:15.809Z,9.17
2019-02-07T00:02:43.259Z,9.03
2019-02-07T00:05:11.502Z,8.77
2019-02-07T00:07:38.957Z,8.95
2019-02-07T00:10:09.706Z,9.07
2019-02-07T00:12:37.172Z,8.60
2019-02-07T00:15:04.637Z,8.73
2019-02-07T00:17:32.106Z,9.73
2019-02-07T00:19:59.554Z,9.13
2019-02-07T00:22:27.019Z,8.90
2019-02-07T00:24:54.474Z,9.13
2019-02-07T00:27:21.930Z,8.67
2019-02-07T00:29:49.391Z,9.90
2019-02-07T00:32:16.843Z,9.97
2019-02-07T00:34:44.305Z,10.43
2019-02-07T00:37:11.777Z,9.47
2019-02-07T00:39:39.269Z,11.13
2019-02-07T00:42:06.739Z,10.43
2019-02-07T00:44:34.982Z,10.47
2019-02-07T00:47:02.444Z,10.30
2019-02-07T00:49:29.924Z,10.80
2019-02-07T00:51:57.422Z,10.37
2019-02-07T00:54:25.660Z,10.60
2019-02-07T00:56:53.123Z,10.17
2019-02-07T00:59:20.580Z,9.83
2019-02-07T01:01:48.065Z,8.53
2019-02-07T01:04:15.552Z,8.70
2019-02-07T01:06:43.775Z,8.83
2019-02-07T01:09:11.232Z,9.30
2019-02-07T01:11:38.706Z,8.20
2019-02-07T01:14:06.175Z,8.07
2019-02-07T01:16:33.639Z,8.83
2019-02-07T01:19:01.114Z,8.67
2019-02-07T01:21:29.340Z,7.53
2019-02-07T01:23:56.912Z,8.13
2019-02-07T01:26:24.390Z,8.47
2019-02-07T01:28:51.842Z,7.67
2019-02-07T01:31:19.401Z,7.03
2019-02-07T01:33:46.780Z,8.10
2019-02-07T01:36:14.246Z,7.47
2019-02-07T01:38:41.720Z,7.20
2019-02-07T01:41:09.201Z,8.13
2019-02-07T01:43:36.665Z,7.53
2019-02-07T01:46:04.127Z,6.87
2019-02-07T01:48:31.602Z,7.47
2019-02-07T01:50:59.097Z,7.00
2019-02-07T01:53:26.560Z,7.57
2019-02-07T01:55:54.028Z,7.43
2019-02-07T01:58:21.613Z,7.17
2019-02-07T02:00:50.317Z,7.50
2019-02-07T02:03:17.759Z,7.13
2019-02-07T02:05:45.221Z,7.20
2019-02-07T02:08:12.691Z,7.97
2019-02-07T02:10:40.157Z,7.33
2019-02-07T02:13:07.603Z,7.47
2019-02-07T02:15:35.065Z,8.20
2019-02-07T02:18:02.564Z,8.43
2019-02-07T02:20:30.021Z,8.53
2019-02-07T02:22:57.473Z,7.67
2019-02-07T02:25:24.952Z,8.07
2019-02-07T02:27:52.431Z,8.03
2019-02-07T02:30:20.796Z,8.10
2019-02-07T02:32:48.272Z,7.47
2019-02-07T02:35:15.747Z,8.53
2019-02-07T02:37:43.219Z,8.37
2019-02-07T02:40:11.602Z,7.50
2019-02-07T02:42:39.072Z,7.10
2019-02-07T02:45:11.989Z,8.23
2019-02-07T02:47:39.457Z,7.50
2019-02-07T02:50:07.686Z,6.67
2019-02-07T02:52:35.926Z,7.63
2019-02-07T02:55:04.529Z,7.40
2019-02-07T02:57:31.989Z,7.40
2019-02-07T02:59:59.453Z,8.03
2019-02-07T03:02:27.269Z,7.33
2019-02-07T03:04:58.986Z,7.17
2019-02-07T03:07:26.478Z,7.10
2019-02-07T03:10:01.369Z,6.70
2019-02-07T03:12:44.487Z,6.57
2019-02-07T03:15:12.366Z,6.20
2019-02-07T03:17:55.471Z,6.03
2019-02-07T03:20:39.609Z,7.20
2019-02-07T03:23:10.866Z,6.00
2019-02-07T03:25:54.985Z,6.30
2019-02-07T03:28:22.444Z,6.17
2019-02-07T03:30:51.450Z,6.57
2019-02-07T03:33:21.326Z,6.37
2019-02-07T03:35:48.777Z,5.70
2019-02-07T03:38:16.258Z,7.07
2019-02-07T03:40:46.282Z,6.57
2019-02-07T03:43:16.172Z,5.37
2019-02-07T03:46:02.910Z,6.03
2019-02-07T03:48:27.308Z,5.60
2019-02-07T03:51:01.048Z,6.00
2019-02-07T03:53:30.874Z,5.40
2019-02-07T03:55:58.791Z,5.43
2019-02-07T03:58:27.680Z,5.23
2019-02-07T04:00:55.145Z,4.77
2019-02-07T04:03:39.293Z,4.87
2019-02-07T04:06:14.416Z,5.47
2019-02-07T04:08:47.453Z,5.37
2019-02-07T04:11:20.664Z,5.10
2019-02-07T04:14:03.824Z,5.27
2019-02-07T04:16:34.849Z,4.70
2019-02-07T04:19:02.311Z,4.77
2019-02-07T04:21:35.588Z,5.03
2019-02-07T04:24:08.076Z,4.03
2019-02-07T04:26:53.215Z,4.60
2019-02-07T04:29:21.592Z,4.00
2019-02-07T04:31:54.636Z,3.80
2019-02-07T04:34:38.773Z,4.07
2019-02-07T04:37:09.703Z,3.40
2019-02-07T04:39:47.845Z,3.23
2019-02-07T04:42:17.874Z,2.97
2019-02-07T04:44:51.729Z,3.83
2019-02-07T04:47:34.063Z,3.10
2019-02-07T04:50:04.101Z,3.08
2019-02-07T04:52:35.792Z,3.03
2019-02-07T04:55:06.171Z,2.85
2019-02-07T04:57:33.625Z,3.07
2019-02-07T05:00:09.741Z,3.37
2019-02-07T05:02:37.485Z,3.33
2019-02-07T05:05:06.839Z,3.80
2019-02-07T05:07:39.997Z,3.13
2019-02-07T05:10:09.638Z,3.20
2019-02-07T05:12:53.770Z,3.57
2019-02-07T05:15:21.645Z,3.50
2019-02-07T05:17:53.706Z,3.53
2019-02-07T05:20:27.013Z,3.77
2019-02-07T05:23:07.363Z,3.80
2019-02-07T05:25:38.223Z,4.00
2019-02-07T05:28:14.170Z,3.73
2019-02-07T05:30:43.551Z,4.07
2019-02-07T05:33:16.675Z,3.97
2019-02-07T05:35:47.522Z,4.23
2019-02-07T05:38:20.560Z,4.17
2019-02-07T05:43:48.332Z,5.47
2019-02-07T05:46:20.268Z,4.27
2019-02-07T05:48:58.419Z,4.03
2019-02-07T05:51:32.235Z,3.50
2019-02-07T05:54:18.609Z,3.77
2019-02-07T05:56:49.851Z,3.03
2019-02-07T05:59:22.225Z,2.80
2019-02-07T06:01:52.133Z,2.53
2019-02-07T06:04:39.136Z,2.30
2019-02-07T06:07:10.452Z,1.87
2019-02-07T06:09:56.823Z,1.93
2019-02-07T06:12:26.264Z,1.80
2019-02-07T06:14:54.666Z,2.13
2019-02-07T06:17:27.947Z,2.33
2019-02-07T06:20:11.230Z,2.17
2019-02-07T06:22:39.138Z,2.30
2019-02-07T06:25:09.540Z,3.03
2019-02-07T06:27:42.804Z,2.73
2019-02-07T06:30:20.942Z,2.50
2019-02-07T06:32:52.266Z,2.70
2019-02-07T06:35:20.549Z,2.83
2019-02-07T06:37:51.330Z,3.20
2019-02-07T06:40:33.690Z,2.67
2019-02-07T06:43:06.757Z,2.33
2019-02-07T06:48:38.741Z,5.35
2019-02-07T06:51:18.707Z,3.17
2019-02-07T06:53:51.807Z,3.43
2019-02-07T06:56:19.260Z,2.83
2019-02-07T06:58:49.188Z,3.00
2019-02-07T07:01:20.245Z,4.10
2019-02-07T07:03:53.785Z,3.37
2019-02-07T07:06:42.130Z,2.83
2019-02-07T07:09:13.612Z,3.05
2019-02-07T07:14:34.472Z,4.20
2019-02-07T07:17:04.529Z,3.23
2019-02-07T07:19:35.240Z,2.93
2019-02-07T07:22:07.588Z,3.13
2019-02-07T07:27:28.321Z,4.10
2019-02-07T07:30:03.412Z,3.93
2019-02-07T07:32:36.674Z,2.53
2019-02-07T07:35:06.346Z,2.40
2019-02-07T07:37:33.805Z,2.70
2019-02-07T07:40:01.286Z,3.20
2019-02-07T07:42:35.912Z,2.10
2019-02-07T07:45:04.473Z,2.90
2019-02-07T07:47:37.717Z,3.07
2019-02-07T07:50:22.777Z,3.00
2019-02-07T07:56:00.313Z,3.80
2019-02-07T07:58:42.648Z,3.43
2019-02-07T08:01:10.885Z,2.97
2019-02-07T08:03:38.357Z,2.67
2019-02-07T08:06:12.271Z,3.17
2019-02-07T08:08:40.737Z,2.40
2019-02-07T08:11:28.025Z,2.93
2019-02-07T08:14:01.365Z,2.77
2019-02-07T08:16:35.510Z,2.63
2019-02-07T08:19:24.493Z,2.83
2019-02-07T08:21:57.784Z,2.50
2019-02-07T08:24:27.976Z,3.97
2019-02-07T08:26:55.442Z,3.63
2019-02-07T08:29:39.690Z,3.07
2019-02-07T08:32:12.880Z,2.83
2019-02-07T08:34:42.293Z,2.87
2019-02-07T08:37:13.753Z,2.70
2019-02-07T08:39:46.703Z,2.50
2019-02-07T08:42:21.727Z,2.43
2019-02-07T08:44:50.114Z,2.73
2019-02-07T08:47:20.219Z,2.23
2019-02-07T08:49:57.610Z,2.40
2019-02-07T08:52:25.087Z,2.37
2019-02-07T08:57:48.417Z,2.90
2019-02-07T09:00:20.119Z,2.77
2019-02-07T09:03:02.457Z,2.67
2019-02-07T09:08:29.100Z,2.85
2019-02-07T09:11:08.262Z,2.10
2019-02-07T09:13:53.862Z,3.30
2019-02-07T09:16:26.789Z,2.30
2019-02-07T09:19:10.728Z,2.03
2019-02-07T09:21:43.805Z,2.97
2019-02-07T09:24:16.106Z,2.25
2019-02-07T09:26:46.104Z,1.90
2019-02-07T09:29:27.295Z,2.73
2019-02-07T09:32:00.413Z,2.30
2019-02-07T09:34:37.774Z,2.20
2019-02-07T09:37:13.592Z,1.97
2019-02-07T09:39:55.991Z,2.50
2019-02-07T09:42:29.247Z,2.47
2019-02-07T09:47:54.948Z,3.20
2019-02-07T09:50:38.968Z,2.17
2019-02-07T09:53:08.337Z,2.53
2019-02-07T09:55:41.480Z,2.80
2019-02-07T10:01:10.078Z,4.50
2019-02-07T10:03:38.312Z,3.43
2019-02-07T10:06:07.687Z,2.63
2019-02-07T10:08:39.702Z,2.47
2019-02-07T10:11:07.933Z,3.40
2019-02-07T10:13:49.233Z,2.63
2019-02-07T10:16:22.350Z,2.53
2019-02-07T10:18:51.500Z,1.93
2019-02-07T10:21:24.713Z,2.10
2019-02-07T10:23:54.084Z,2.23
2019-02-07T10:26:27.149Z,2.80
2019-02-07T10:29:07.039Z,3.07
2019-02-07T10:34:47.885Z,3.95
2019-02-07T10:37:25.254Z,2.53
2019-02-07T10:39:59.350Z,3.03
2019-02-07T10:42:28.768Z,2.80
2019-02-07T10:45:07.033Z,2.73
2019-02-07T10:47:40.207Z,2.83
2019-02-07T10:53:12.482Z,3.58
2019-02-07T10:55:45.732Z,2.67
2019-02-07T10:58:14.792Z,2.83
2019-02-07T11:00:48.012Z,2.83
2019-02-07T11:03:15.478Z,2.87
2019-02-07T11:08:55.034Z,3.47
2019-02-07T11:11:38.971Z,2.57
2019-02-07T11:14:23.010Z,2.90
2019-02-07T11:19:48.615Z,2.72
2019-02-07T11:22:16.861Z,2.30
2019-02-07T11:24:50.228Z,2.77
2019-02-07T11:27:23.370Z,2.00
2019-02-07T11:29:52.751Z,2.50
2019-02-07T11:32:22.795Z,2.20
2019-02-07T11:34:50.498Z,2.53
2019-02-07T11:37:24.567Z,2.20
2019-02-07T11:39:56.660Z,2.90
2019-02-07T11:42:28.015Z,1.97
2019-02-07T11:44:57.066Z,2.57
2019-02-07T11:47:33.025Z,2.43
2019-02-07T11:50:11.291Z,2.40
2019-02-07T11:52:43.431Z,2.47
2019-02-07T11:55:13.482Z,2.13
2019-02-07T11:58:02.562Z,2.47
2019-02-07T12:00:30.585Z,2.10
2019-02-07T12:03:00.700Z,2.30
2019-02-07T12:05:30.608Z,2.97
2019-02-07T12:07:59.026Z,2.17
2019-02-07T12:13:29.641Z,3.40
2019-02-07T12:18:55.903Z,3.37
2019-02-07T12:21:29.767Z,2.47
2019-02-07T12:24:12.132Z,3.07
2019-02-07T12:26:40.536Z,2.40
2019-02-07T12:29:10.477Z,2.97
2019-02-07T12:31:53.614Z,2.63
2019-02-07T12:34:22.038Z,3.17
2019-02-07T12:37:05.911Z,2.30
2019-02-07T12:39:39.487Z,3.53
2019-02-07T12:42:08.549Z,2.80
2019-02-07T12:44:38.181Z,2.50
2019-02-07T12:47:20.525Z,3.00
2019-02-07T12:49:47.987Z,2.10
2019-02-07T12:52:18.245Z,2.67
2019-02-07T12:55:04.544Z,3.00
2019-02-07T12:57:39.526Z,2.30
2019-02-07T13:00:26.510Z,2.33
2019-02-07T13:05:47.243Z,3.37
2019-02-07T13:08:20.482Z,2.67
2019-02-07T13:10:53.547Z,2.97
2019-02-07T13:13:21.943Z,2.37
2019-02-07T13:15:54.937Z,2.43
2019-02-07T13:18:25.037Z,2.67
2019-02-07T13:20:57.010Z,2.07
2019-02-07T13:23:30.299Z,2.43
2019-02-07T13:25:59.186Z,2.37
2019-02-07T13:28:30.624Z,2.43
2019-02-07T13:31:04.069Z,2.30
2019-02-07T13:33:36.884Z,2.37
2019-02-07T13:36:09.996Z,2.47
2019-02-07T13:41:34.320Z,2.97
2019-02-07T13:44:02.695Z,3.80
2019-02-07T13:46:35.878Z,2.40
2019-02-07T13:49:09.606Z,2.37
2019-02-07T13:51:42.886Z,2.50
2019-02-07T13:54:28.228Z,2.70
2019-02-07T13:56:57.650Z,2.37
2019-02-07T13:59:31.588Z,2.33
2019-02-07T14:04:57.383Z,2.95
2019-02-07T14:07:25.816Z,2.70
2019-02-07T14:13:04.556Z,2.95
2019-02-07T14:18:25.300Z,3.25
2019-02-07T14:20:58.545Z,2.10
2019-02-07T14:23:29.966Z,2.90
2019-02-07T14:26:02.583Z,3.00
2019-02-07T14:28:33.405Z,2.23
2019-02-07T14:31:11.540Z,1.90
2019-02-07T14:33:40.407Z,2.60
2019-02-07T14:36:26.333Z,2.03
2019-02-07T14:38:55.779Z,2.13
2019-02-07T14:41:38.899Z,1.97
2019-02-07T14:44:06.359Z,2.20
2019-02-07T14:46:38.365Z,2.10
2019-02-07T14:49:05.871Z,3.23
2019-02-07T14:51:33.343Z,2.17
2019-02-07T14:54:00.901Z,2.63
2019-02-07T14:56:28.366Z,2.30
2019-02-07T14:58:55.805Z,1.87
2019-02-07T15:01:23.296Z,2.37
2019-02-07T15:03:50.769Z,2.30
2019-02-07T15:06:19.018Z,2.67
2019-02-07T15:08:46.510Z,2.60
2019-02-07T15:11:13.965Z,2.67
2019-02-07T15:13:41.470Z,2.40
2019-02-07T15:16:09.000Z,2.33
2019-02-07T15:18:36.470Z,2.73
2019-02-07T15:21:04.680Z,2.00
2019-02-07T15:23:32.150Z,1.80
2019-02-07T15:25:59.607Z,3.30
2019-02-07T15:28:27.110Z,2.40
2019-02-07T15:30:56.156Z,2.43
2019-02-07T15:33:23.656Z,1.90
2019-02-07T15:35:51.212Z,2.57
2019-02-07T15:38:18.686Z,2.83
2019-02-07T15:40:46.140Z,2.57
2019-02-07T15:43:13.643Z,2.50
2019-02-07T15:45:41.921Z,2.77
2019-02-07T15:48:09.370Z,4.03
2019-02-07T15:50:38.467Z,2.67
2019-02-07T15:53:05.099Z,1.90
2019-02-07T15:55:32.562Z,1.93
2019-02-07T15:58:00.004Z,2.20
2019-02-07T16:03:24.745Z,2.70
2019-02-07T16:05:52.208Z,2.17
2019-02-07T16:08:19.661Z,2.33
2019-02-07T16:10:47.899Z,2.40
2019-02-07T16:13:15.357Z,2.53
2019-02-07T16:15:42.805Z,1.93
2019-02-07T16:18:10.311Z,2.50
2019-02-07T16:20:48.454Z,2.30
2019-02-07T16:23:05.336Z,2.50
2019-02-07T16:25:32.991Z,2.70
2019-02-07T16:28:00.465Z,2.50
2019-02-07T16:30:30.570Z,2.27
2019-02-07T16:32:55.503Z,2.60
2019-02-07T16:35:23.065Z,2.43
2019-02-07T16:37:50.528Z,3.73
2019-02-07T16:40:21.769Z,3.23
2019-02-07T16:42:47.295Z,2.20
2019-02-07T16:45:17.721Z,1.63
2019-02-07T16:47:45.276Z,2.33
2019-02-07T16:50:13.546Z,2.30
2019-02-07T16:52:41.008Z,1.73
2019-02-07T16:55:08.469Z,2.50
2019-02-07T16:57:35.945Z,2.67
2019-02-07T17:00:18.555Z,1.97
2019-02-07T17:02:46.019Z,2.33
2019-02-07T17:05:14.187Z,1.97
2019-02-07T17:07:41.753Z,1.70
2019-02-07T17:10:11.684Z,1.73
2019-02-07T17:12:39.243Z,1.53
2019-02-07T17:15:06.804Z,1.40
2019-02-07T17:17:34.252Z,1.50
2019-02-07T17:20:01.732Z,1.60
2019-02-07T17:22:29.210Z,1.80
2019-02-07T17:24:57.456Z,2.43
2019-02-07T17:27:25.029Z,2.40
2019-02-07T17:29:53.458Z,2.47
2019-02-07T17:32:20.062Z,2.57
2019-02-07T17:34:48.320Z,1.97
2019-02-07T17:37:15.778Z,2.57
2019-02-07T17:39:43.270Z,2.80
2019-02-07T17:42:10.721Z,2.47
2019-02-07T17:44:38.195Z,3.17
2019-02-07T17:47:05.709Z,2.40
2019-02-07T17:49:33.174Z,2.27
2019-02-07T17:52:00.638Z,2.17
2019-02-07T17:54:28.130Z,2.40
2019-02-07T17:56:55.720Z,2.37
2019-02-07T17:59:23.977Z,2.90
2019-02-07T18:01:51.433Z,2.90
2019-02-07T18:04:18.911Z,2.37
2019-02-07T18:06:46.451Z,2.53
2019-02-07T18:09:14.022Z,2.13
2019-02-07T18:11:41.604Z,2.60
2019-02-07T18:14:10.559Z,1.93
2019-02-07T18:16:38.038Z,2.73
2019-02-07T18:19:05.618Z,1.70
2019-02-07T18:21:34.605Z,2.30
2019-02-07T18:24:01.637Z,2.53
2019-02-07T18:26:29.093Z,2.17
2019-02-07T18:28:56.570Z,2.43
2019-02-07T18:31:24.056Z,2.30
2019-02-07T18:33:51.608Z,2.33
2019-02-07T18:36:19.086Z,1.93
2019-02-07T18:38:46.635Z,2.60
2019-02-07T18:41:14.105Z,2.20
2019-02-07T18:43:41.613Z,1.83
2019-02-07T18:46:09.058Z,2.73
2019-02-07T18:48:37.294Z,2.70
2019-02-07T18:51:04.969Z,2.50
2019-02-07T18:53:32.534Z,2.70
2019-02-07T18:56:00.017Z,2.73
2019-02-07T18:58:27.486Z,2.00
2019-02-07T19:00:56.323Z,2.57
2019-02-07T19:03:23.818Z,2.23
2019-02-07T19:05:52.778Z,2.00
2019-02-07T19:08:20.380Z,2.80
2019-02-07T19:10:47.853Z,2.60
2019-02-07T19:13:15.317Z,2.23
2019-02-07T19:15:45.278Z,2.57
2019-02-07T19:18:12.765Z,2.33
2019-02-07T19:20:40.243Z,2.07
2019-02-07T19:23:07.717Z,2.33
2019-02-07T19:25:35.965Z,2.90
2019-02-07T19:28:03.563Z,1.93
2019-02-07T19:30:31.017Z,3.03
2019-02-07T19:32:58.570Z,2.50
2019-02-07T19:35:26.036Z,2.77
2019-02-07T19:37:53.502Z,2.13
2019-02-07T19:40:21.029Z,2.23
2019-02-07T19:42:48.509Z,3.00
2019-02-07T19:45:15.969Z,2.10
2019-02-07T19:47:43.543Z,2.57
2019-02-07T19:50:11.017Z,2.27
2019-02-07T19:52:39.702Z,2.00
2019-02-07T19:55:05.965Z,2.67
2019-02-07T19:57:34.187Z,2.77
2019-02-07T20:00:01.673Z,2.20
2019-02-07T20:02:29.236Z,2.53
2019-02-07T20:04:56.686Z,2.83
2019-02-07T20:07:24.171Z,2.77
2019-02-07T20:09:51.638Z,2.20
2019-02-07T20:12:19.090Z,2.27
2019-02-07T20:14:46.570Z,2.33
2019-02-07T20:17:14.803Z,2.53
2019-02-07T20:19:42.282Z,3.13
2019-02-07T20:22:19.815Z,2.30
2019-02-07T20:24:45.611Z,2.60
2019-02-07T20:27:05.595Z,2.27
2019-02-07T20:29:33.066Z,2.80
2019-02-07T20:32:00.521Z,2.60
2019-02-07T20:34:28.081Z,2.70
2019-02-07T20:36:55.649Z,2.47
2019-02-07T20:39:23.099Z,2.07
2019-02-07T20:41:50.577Z,2.30
2019-02-07T20:44:18.797Z,2.60
2019-02-07T20:46:46.265Z,2.80
2019-02-07T20:49:13.711Z,2.40
2019-02-07T20:51:41.228Z,1.97
2019-02-07T20:54:08.681Z,2.53
2019-02-07T20:56:36.145Z,2.40
2019-02-07T20:59:03.614Z,1.93
2019-02-07T21:01:31.898Z,2.53
2019-02-07T21:03:59.375Z,2.77
2019-02-07T21:06:27.613Z,1.97
2019-02-07T21:08:55.086Z,2.17
2019-02-07T21:11:22.538Z,2.40
2019-02-07T21:13:50.021Z,2.67
2019-02-07T21:16:19.108Z,2.33
2019-02-07T21:18:46.572Z,2.13
2019-02-07T21:21:14.051Z,2.30
2019-02-07T21:23:41.549Z,2.50
2019-02-07T21:26:09.786Z,2.40
2019-02-07T21:28:37.240Z,2.70
2019-02-07T21:31:04.815Z,2.50
2019-02-07T21:33:32.381Z,2.07
2019-02-07T21:35:59.866Z,2.13
2019-02-07T21:38:28.121Z,2.13
2019-02-07T21:40:55.604Z,2.07
2019-02-07T21:43:23.861Z,1.73
2019-02-07T21:45:51.321Z,2.10
2019-02-07T21:48:18.800Z,1.87
2019-02-07T21:50:46.271Z,2.27
2019-02-07T21:53:14.524Z,2.43
2019-02-07T21:55:41.982Z,2.80
2019-02-07T21:58:09.445Z,2.20
2019-02-07T22:00:38.577Z,2.20
2019-02-07T22:03:06.815Z,1.97
2019-02-07T22:05:34.275Z,2.80
2019-02-07T22:08:01.730Z,2.23
2019-02-07T22:10:30.024Z,2.13
2019-02-07T22:12:57.493Z,1.98
2019-02-07T22:15:24.966Z,2.00
2019-02-07T22:17:52.432Z,2.33
2019-02-07T22:20:20.457Z,1.90
2019-02-07T22:22:49.304Z,2.43
2019-02-07T22:25:15.409Z,1.90
2019-02-07T22:27:42.877Z,2.73
2019-02-07T22:30:13.206Z,2.50
2019-02-07T22:32:40.775Z,1.87
2019-02-07T22:35:08.230Z,2.17
2019-02-07T22:37:35.716Z,2.37
2019-02-07T22:40:05.493Z,2.07
2019-02-07T22:42:32.971Z,2.10
2019-02-07T22:45:00.548Z,1.93
2019-02-07T22:47:28.011Z,2.40
2019-02-07T22:49:55.570Z,2.60
2019-02-07T22:52:23.822Z,2.30
2019-02-07T22:54:51.462Z,2.87
2019-02-07T22:57:18.925Z,2.47
2019-02-07T22:59:46.433Z,2.27
2019-02-07T23:02:13.901Z,1.87
2019-02-07T23:04:41.688Z,2.30
2019-02-07T23:07:09.180Z,2.43
2019-02-07T23:09:36.690Z,2.10
2019-02-07T23:12:04.250Z,2.00
2019-02-07T23:14:31.734Z,2.20
2019-02-07T23:16:59.985Z,2.13
2019-02-07T23:19:27.487Z,1.90
2019-02-07T23:21:55.738Z,2.30
2019-02-07T23:24:23.206Z,2.20
2019-02-07T23:26:51.479Z,2.50
2019-02-07T23:29:18.905Z,1.97
2019-02-07T23:31:46.363Z,2.33
2019-02-07T23:34:13.857Z,2.40
2019-02-07T23:36:41.312Z,2.03
2019-02-07T23:39:08.789Z,1.80
2019-02-07T23:41:37.790Z,1.90
2019-02-07T23:44:06.061Z,2.00
2019-02-07T23:46:33.526Z,1.98
2019-02-07T23:49:01.040Z,2.50
2019-02-07T23:51:28.552Z,2.10
2019-02-07T23:53:56.029Z,2.57
2019-02-07T23:56:23.502Z,2.37
2019-02-07T23:58:50.940Z,1.83
